createdAt,value
2023-04-02T00:03:26.195Z,11.434782608695652
2023-04-02T00:09:45.451Z,12.735785953177258
2023-04-02T00:16:05.176Z,11.424749163879598
2023-04-02T00:22:23.954Z,13.505016722408026
2023-04-02T00:28:42.825Z,12.812709030100335
2023-04-02T00:35:01.873Z,12.812709030100335
2023-04-02T00:41:20.376Z,9.150501672240802
2023-04-02T00:52:04.164Z,11.91638795986622
2023-04-02T00:58:23.991Z,15.03010033444816
2023-04-02T01:09:47.786Z,13.551839464882944
2023-04-02T01:16:05.776Z,12.264214046822742
2023-04-02T01:23:18.889Z,11.755852842809364
2023-04-02T01:29:38.666Z,6.963210702341137
2023-04-02T01:38:03.868Z,14.11371237458194
2023-04-02T01:44:22.960Z,11.812709030100335
2023-04-02T01:50:41.944Z,9.725752508361204
2023-04-02T01:57:01.027Z,10.217391304347826
2023-04-02T02:03:20.196Z,9.341137123745819
2023-04-02T02:20:13.404Z,9.919732441471572
2023-04-02T02:26:36.495Z,10.909698996655518
2023-04-02T02:32:56.788Z,10.976588628762542
2023-04-02T02:39:15.804Z,10.117056856187292
2023-04-02T02:48:05.275Z,8.48494983277592
2023-04-02T02:54:23.715Z,12.33779264214047
2023-04-02T03:00:46.511Z,10.956521739130435
2023-04-02T03:12:39.813Z,10.59866220735786
2023-04-02T03:18:59.840Z,9.642140468227424
2023-04-02T03:25:19.138Z,9.421404682274247
2023-04-02T03:31:38.658Z,7.234113712374582
2023-04-02T03:37:58.786Z,11.722408026755852
2023-04-02T03:44:18.220Z,9.97324414715719
2023-04-02T03:50:36.947Z,9.909698996655518
2023-04-02T03:58:13.838Z,8.37458193979933
2023-04-02T04:04:34.519Z,10.14046822742475
2023-04-02T04:14:51.416Z,9.558528428093645
2023-04-02T04:21:10.853Z,8.933110367892976
2023-04-02T04:27:29.722Z,8.729096989966555
2023-04-02T04:33:48.472Z,6.809364548494983
2023-04-02T04:40:07.644Z,5.8762541806020065
2023-04-02T04:50:36.896Z,8.307692307692308
2023-04-02T04:59:41.566Z,5.471571906354515
2023-04-02T05:06:00.160Z,9.431438127090301
2023-04-02T05:12:20.230Z,9.618729096989966
2023-04-02T05:18:41.445Z,6.053511705685619
2023-04-02T05:25:03.308Z,6.294314381270903
2023-04-02T05:33:16.302Z,7.608695652173913
2023-04-02T05:39:38.030Z,5.806020066889632
2023-04-02T05:45:59.258Z,6.130434782608695
2023-04-02T05:52:19.775Z,6.638795986622074
2023-04-02T05:59:51.207Z,7.575250836120401
2023-04-02T06:06:14.579Z,4.8996655518394645
2023-04-02T06:12:35.887Z,7.645484949832776
2023-04-02T06:18:58.212Z,6.538461538461538
2023-04-02T06:25:19.616Z,6.424749163879599
2023-04-02T06:31:50.694Z,7.247491638795987
2023-04-02T06:43:54.908Z,10.82943143812709
2023-04-02T06:50:16.756Z,7.277591973244147
2023-04-02T06:56:38.832Z,4.501672240802676
2023-04-02T07:03:02.901Z,4.023411371237458
2023-04-02T07:09:27.898Z,5.1003344481605355
2023-04-02T07:15:50.978Z,5.906354515050167
2023-04-02T07:22:14.187Z,5.54180602006689
2023-04-02T07:28:36.802Z,6.217391304347826
2023-04-02T07:41:20.826Z,7.367892976588629
2023-04-02T07:47:42.033Z,7.157190635451505
2023-04-02T07:54:03.005Z,4.872909698996655
2023-04-02T08:00:24.312Z,5.364548494983278
2023-04-02T08:06:46.299Z,4.739130434782608
2023-04-02T08:13:07.401Z,5.832775919732441
2023-04-02T08:19:28.203Z,5.74247491638796
2023-04-02T08:31:22.293Z,4.7959866220735785
2023-04-02T08:37:43.365Z,4.384615384615385
2023-04-02T08:44:04.728Z,4.311036789297659
2023-04-02T08:50:24.394Z,7.454849498327759
2023-04-02T08:59:51.183Z,6.05685618729097
2023-04-02T09:06:10.613Z,4.882943143812709
2023-04-02T09:12:30.827Z,6.478260869565218
2023-04-02T09:18:52.482Z,4.096989966555184
2023-04-02T09:29:45.017Z,5.331103678929765
2023-04-02T09:37:00.733Z,3.6555183946488294
2023-04-02T09:43:21.782Z,14.217391304347826
2023-04-02T09:49:51.475Z,4.2207357859531776
2023-04-02T10:00:48.316Z,2.979933110367893
2023-04-02T10:07:09.632Z,2.705685618729097
2023-04-02T10:13:31.229Z,3.6655518394648827
2023-04-02T10:20:00.010Z,2.7725752508361206
2023-04-02T10:26:29.543Z,3.240802675585284
2023-04-02T10:33:10.230Z,6.474916387959866
2023-04-02T10:39:40.045Z,4.618729096989966
2023-04-02T10:46:04.242Z,3.511705685618729
2023-04-02T10:52:25.734Z,4.076923076923077
2023-04-02T10:58:47.068Z,3.0501672240802677
2023-04-02T11:07:31.015Z,3.160535117056856
2023-04-02T11:16:44.019Z,5.264214046822742
2023-04-02T11:23:06.034Z,4.036789297658863
2023-04-02T11:29:27.393Z,4.448160535117057
2023-04-02T11:35:48.959Z,3.5652173913043477
2023-04-02T11:42:10.641Z,3.036789297658863
2023-04-02T11:54:49.360Z,5.648829431438127
2023-04-02T12:01:10.041Z,4.0602006688963215
2023-04-02T12:07:30.508Z,3.230769230769231
2023-04-02T12:13:51.708Z,30.50836120401338
2023-04-02T12:24:00.814Z,12.02675585284281
2023-04-02T12:30:20.897Z,4.581939799331104
2023-04-02T12:45:00.664Z,5.05685618729097
2023-04-02T12:51:21.248Z,4.953177257525083
2023-04-02T13:02:05.253Z,3.8127090301003346
2023-04-02T13:12:48.035Z,5.20066889632107
2023-04-02T13:19:08.268Z,7.8561872909699
2023-04-02T13:25:27.738Z,3.983277591973244
2023-04-02T13:31:48.098Z,5.438127090301004
2023-04-02T13:38:07.954Z,5.752508361204013
2023-04-02T13:44:27.784Z,4.54180602006689
2023-04-02T13:50:47.696Z,3.9899665551839463
2023-04-02T13:57:07.663Z,6.812709030100335
2023-04-02T14:05:21.080Z,4.444816053511706
2023-04-02T14:11:40.948Z,3.7157190635451505
2023-04-02T14:20:43.639Z,5.311036789297659
2023-04-02T14:27:04.287Z,6.45819397993311
2023-04-02T14:33:24.130Z,4.655518394648829
2023-04-02T14:39:43.809Z,4.1638795986622075
2023-04-02T14:48:56.302Z,4.682274247491639
2023-04-02T14:55:16.402Z,5.391304347826087
2023-04-02T15:01:36.858Z,6.384615384615385
2023-04-02T15:07:56.828Z,5.37123745819398
2023-04-02T15:14:17.398Z,2.9866220735785953
2023-04-02T15:20:36.633Z,5.133779264214047
2023-04-02T15:26:56.166Z,4.525083612040134
2023-04-02T15:33:15.747Z,5.066889632107023
2023-04-02T15:39:34.938Z,3.7357859531772575
2023-04-02T15:45:54.363Z,5.317725752508361
2023-04-02T15:52:14.732Z,5.090301003344481
2023-04-02T16:00:04.643Z,3.177257525083612
2023-04-02T16:13:10.771Z,6.578595317725752
2023-04-02T16:19:30.780Z,5.217391304347826
2023-04-02T16:25:50.724Z,6.384615384615385
2023-04-02T16:32:12.683Z,4.866220735785953
2023-04-02T16:38:32.352Z,5.896321070234114
2023-04-02T16:44:52.921Z,5.678929765886288
2023-04-02T16:51:14.238Z,5.913043478260869
2023-04-02T16:57:35.514Z,6.759197324414716
2023-04-02T17:04:00.966Z,7.635451505016722
2023-04-02T17:17:54.899Z,8.575250836120402
2023-04-02T17:24:16.618Z,6.133779264214047
2023-04-02T17:30:38.441Z,7.62876254180602
2023-04-02T17:37:00.347Z,13.949832775919733
2023-04-02T17:43:21.744Z,11.297658862876254
2023-04-02T17:49:43.464Z,9.03010033444816
2023-04-02T17:58:41.888Z,7.759197324414716
2023-04-02T18:05:04.231Z,9.324414715719064
2023-04-02T18:11:23.348Z,17.501672240802677
2023-04-02T18:17:42.481Z,9.866220735785953
2023-04-02T18:24:01.902Z,14.22742474916388
2023-04-02T18:34:55.601Z,16.411371237458194
2023-04-02T18:41:15.022Z,20.722408026755854
2023-04-02T18:47:33.888Z,17.210702341137125
2023-04-02T18:53:53.284Z,15.765886287625419
2023-04-02T19:00:13.706Z,12.561872909698996
2023-04-02T19:06:33.337Z,12.782608695652174
2023-04-02T19:20:16.981Z,17.678929765886288
2023-04-02T19:26:36.227Z,12.996655518394649
2023-04-02T19:32:56.660Z,16.040133779264213
2023-04-02T19:39:16.273Z,16.301003344481604
2023-04-02T19:45:36.327Z,15.755852842809364
2023-04-02T19:51:56.576Z,14.538461538461538
2023-04-02T20:08:15.745Z,16.03010033444816
2023-04-02T20:14:37.007Z,9.334448160535118
2023-04-02T20:20:57.815Z,13.123745819397993
2023-04-02T20:27:17.725Z,14.652173913043478
2023-04-02T20:33:38.151Z,22.926421404682273
2023-04-02T20:39:59.139Z,13.79598662207358
2023-04-02T20:51:21.043Z,11.568561872909699
2023-04-02T20:57:41.858Z,14.715719063545151
2023-04-02T21:04:01.720Z,9.434782608695652
2023-04-02T21:10:22.975Z,8.010033444816054
2023-04-02T21:16:44.782Z,10.494983277591974
2023-04-02T21:23:05.319Z,12.709030100334449
2023-04-02T21:29:26.752Z,11.177257525083611
2023-04-02T21:41:14.272Z,12.528428093645484
2023-04-02T21:47:35.308Z,12.076923076923077
2023-04-02T21:53:55.504Z,11.157190635451505
2023-04-02T22:00:16.453Z,14.247491638795987
2023-04-02T22:06:36.707Z,12.404682274247492
2023-04-02T22:12:56.808Z,11.438127090301004
2023-04-02T22:20:30.032Z,11.979933110367893
2023-04-02T22:26:51.187Z,11.33779264214047
2023-04-02T22:33:11.898Z,12.127090301003344
2023-04-02T22:44:58.532Z,11.157190635451505
2023-04-02T22:51:18.850Z,9.2876254180602
2023-04-02T22:57:39.346Z,13.632107023411372
2023-04-02T23:03:59.240Z,13.762541806020067
2023-04-02T23:10:21.436Z,11.555183946488294
2023-04-02T23:16:41.361Z,15.591973244147157
2023-04-02T23:23:02.953Z,13.595317725752508
2023-04-02T23:29:22.940Z,13.210702341137123
2023-04-02T23:35:42.743Z,14.240802675585284
2023-04-02T23:42:03.729Z,14.605351170568563
2023-04-02T23:48:22.792Z,11.97324414715719
2023-04-02T23:54:42.842Z,11.133779264214047
